sensor_id;sensor_type;location;lat;lon;timestamp;temperature;humidity
78467;SHT31;67759;51.972;5.650;2023-03-01T00:01:15;1.9;53.9
78467;SHT31;67759;51.972;5.650;2023-03-01T00:03:47;1.8;54.0
78467;SHT31;67759;51.972;5.650;2023-03-01T00:06:17;1.8;54.4
78467;SHT31;67759;51.972;5.650;2023-03-01T00:08:48;1.8;54.7
78467;SHT31;67759;51.972;5.650;2023-03-01T00:11:22;1.7;54.7
78467;SHT31;67759;51.972;5.650;2023-03-01T00:13:54;1.7;54.6
78467;SHT31;67759;51.972;5.650;2023-03-01T00:16:27;1.7;54.5
78467;SHT31;67759;51.972;5.650;2023-03-01T00:18:58;1.7;55.2
78467;SHT31;67759;51.972;5.650;2023-03-01T00:21:28;1.7;54.7
78467;SHT31;67759;51.972;5.650;2023-03-01T00:24:00;1.7;54.6
78467;SHT31;67759;51.972;5.650;2023-03-01T00:26:31;1.6;54.7
78467;SHT31;67759;51.972;5.650;2023-03-01T00:29:03;1.6;54.8
78467;SHT31;67759;51.972;5.650;2023-03-01T00:31:34;1.6;55.0
78467;SHT31;67759;51.972;5.650;2023-03-01T00:34:05;1.6;55.2
78467;SHT31;67759;51.972;5.650;2023-03-01T00:36:37;1.6;55.0
78467;SHT31;67759;51.972;5.650;2023-03-01T00:39:11;1.6;54.7
78467;SHT31;67759;51.972;5.650;2023-03-01T00:41:42;1.6;54.4
78467;SHT31;67759;51.972;5.650;2023-03-01T00:44:12;1.6;54.6
78467;SHT31;67759;51.972;5.650;2023-03-01T00:46:42;1.6;54.4
78467;SHT31;67759;51.972;5.650;2023-03-01T00:49:11;1.5;54.4
78467;SHT31;67759;51.972;5.650;2023-03-01T00:51:41;1.5;54.8
78467;SHT31;67759;51.972;5.650;2023-03-01T00:54:10;1.4;55.0
78467;SHT31;67759;51.972;5.650;2023-03-01T00:56:43;1.4;55.0
78467;SHT31;67759;51.972;5.650;2023-03-01T00:59:13;1.3;55.1
78467;SHT31;67759;51.972;5.650;2023-03-01T01:01:44;1.3;55.3
78467;SHT31;67759;51.972;5.650;2023-03-01T01:04:14;1.2;55.6
78467;SHT31;67759;51.972;5.650;2023-03-01T01:06:45;1.2;56.2
78467;SHT31;67759;51.972;5.650;2023-03-01T01:09:19;1.1;55.6
78467;SHT31;67759;51.972;5.650;2023-03-01T01:11:50;1.1;55.8
78467;SHT31;67759;51.972;5.650;2023-03-01T01:14:20;1.1;56.3
78467;SHT31;67759;51.972;5.650;2023-03-01T01:16:50;1.1;56.4
78467;SHT31;67759;51.972;5.650;2023-03-01T01:19:24;1.0;56.3
78467;SHT31;67759;51.972;5.650;2023-03-01T01:21:56;1.0;56.2
78467;SHT31;67759;51.972;5.650;2023-03-01T01:24:26;1.1;56.2
78467;SHT31;67759;51.972;5.650;2023-03-01T01:26:58;1.0;55.9
78467;SHT31;67759;51.972;5.650;2023-03-01T01:29:29;1.0;56.6
78467;SHT31;67759;51.972;5.650;2023-03-01T01:32:00;1.0;56.7
78467;SHT31;67759;51.972;5.650;2023-03-01T01:34:30;0.9;56.8
78467;SHT31;67759;51.972;5.650;2023-03-01T01:36:59;0.9;57.2
78467;SHT31;67759;51.972;5.650;2023-03-01T01:39:30;0.9;57.0
78467;SHT31;67759;51.972;5.650;2023-03-01T01:42:00;0.8;57.5
78467;SHT31;67759;51.972;5.650;2023-03-01T01:44:32;0.8;58.5
78467;SHT31;67759;51.972;5.650;2023-03-01T01:47:05;0.8;58.4
78467;SHT31;67759;51.972;5.650;2023-03-01T01:49:38;0.7;58.5
78467;SHT31;67759;51.972;5.650;2023-03-01T01:52:16;0.7;58.4
78467;SHT31;67759;51.972;5.650;2023-03-01T01:54:51;0.7;58.5
78467;SHT31;67759;51.972;5.650;2023-03-01T01:57:26;0.6;59.2
78467;SHT31;67759;51.972;5.650;2023-03-01T02:00:02;0.6;58.3
78467;SHT31;67759;51.972;5.650;2023-03-01T02:02:32;0.6;58.1
78467;SHT31;67759;51.972;5.650;2023-03-01T02:05:11;0.6;58.0
78467;SHT31;67759;51.972;5.650;2023-03-01T02:07:45;0.5;58.3
78467;SHT31;67759;51.972;5.650;2023-03-01T02:10:16;0.5;59.0
78467;SHT31;67759;51.972;5.650;2023-03-01T02:12:47;0.5;58.5
78467;SHT31;67759;51.972;5.650;2023-03-01T02:15:17;0.5;58.7
78467;SHT31;67759;51.972;5.650;2023-03-01T02:17:47;0.5;58.0
78467;SHT31;67759;51.972;5.650;2023-03-01T02:20:26;0.5;58.3
78467;SHT31;67759;51.972;5.650;2023-03-01T02:23:00;0.5;58.1
78467;SHT31;67759;51.972;5.650;2023-03-01T02:25:37;0.5;58.4
78467;SHT31;67759;51.972;5.650;2023-03-01T02:28:25;0.5;57.9
78467;SHT31;67759;51.972;5.650;2023-03-01T02:30:55;0.5;57.7
78467;SHT31;67759;51.972;5.650;2023-03-01T02:33:41;0.5;57.6
78467;SHT31;67759;51.972;5.650;2023-03-01T02:36:17;0.5;58.0
78467;SHT31;67759;51.972;5.650;2023-03-01T02:38:52;0.6;58.3
78467;SHT31;67759;51.972;5.650;2023-03-01T02:41:26;0.6;57.2
78467;SHT31;67759;51.972;5.650;2023-03-01T02:43:56;0.6;57.3
78467;SHT31;67759;51.972;5.650;2023-03-01T02:46:30;0.6;57.5
78467;SHT31;67759;51.972;5.650;2023-03-01T02:49:01;0.6;57.2
78467;SHT31;67759;51.972;5.650;2023-03-01T02:51:45;0.5;57.2
78467;SHT31;67759;51.972;5.650;2023-03-01T02:54:22;0.5;57.2
78467;SHT31;67759;51.972;5.650;2023-03-01T02:56:57;0.5;57.1
78467;SHT31;67759;51.972;5.650;2023-03-01T02:59:32;0.5;57.1
78467;SHT31;67759;51.972;5.650;2023-03-01T03:02:07;0.5;57.4
78467;SHT31;67759;51.972;5.650;2023-03-01T03:04:37;0.5;57.5
78467;SHT31;67759;51.972;5.650;2023-03-01T03:07:06;0.4;57.6
78467;SHT31;67759;51.972;5.650;2023-03-01T03:09:36;0.4;58.3
78467;SHT31;67759;51.972;5.650;2023-03-01T03:12:06;0.4;58.1
78467;SHT31;67759;51.972;5.650;2023-03-01T03:14:36;0.4;58.4
78467;SHT31;67759;51.972;5.650;2023-03-01T03:17:06;0.5;58.5
78467;SHT31;67759;51.972;5.650;2023-03-01T03:19:36;0.5;58.7
78467;SHT31;67759;51.972;5.650;2023-03-01T03:22:06;0.5;58.5
78467;SHT31;67759;51.972;5.650;2023-03-01T03:24:37;0.4;58.8
78467;SHT31;67759;51.972;5.650;2023-03-01T03:27:07;0.4;58.5
78467;SHT31;67759;51.972;5.650;2023-03-01T03:29:38;0.4;58.7
78467;SHT31;67759;51.972;5.650;2023-03-01T03:32:07;0.4;57.8
78467;SHT31;67759;51.972;5.650;2023-03-01T03:34:37;0.4;57.7
78467;SHT31;67759;51.972;5.650;2023-03-01T03:37:07;0.4;58.1
78467;SHT31;67759;51.972;5.650;2023-03-01T03:39:44;0.3;57.8
78467;SHT31;67759;51.972;5.650;2023-03-01T03:42:14;0.3;58.0
78467;SHT31;67759;51.972;5.650;2023-03-01T03:44:43;0.3;58.5
78467;SHT31;67759;51.972;5.650;2023-03-01T03:47:13;0.3;57.9
78467;SHT31;67759;51.972;5.650;2023-03-01T03:49:44;0.3;58.1
78467;SHT31;67759;51.972;5.650;2023-03-01T03:52:13;0.3;57.7
78467;SHT31;67759;51.972;5.650;2023-03-01T03:54:45;0.2;57.4
78467;SHT31;67759;51.972;5.650;2023-03-01T03:57:14;0.2;58.0
78467;SHT31;67759;51.972;5.650;2023-03-01T03:59:44;0.2;59.0
78467;SHT31;67759;51.972;5.650;2023-03-01T04:02:13;0.2;58.5
78467;SHT31;67759;51.972;5.650;2023-03-01T04:04:49;0.2;58.3
78467;SHT31;67759;51.972;5.650;2023-03-01T04:07:18;0.2;58.0
78467;SHT31;67759;51.972;5.650;2023-03-01T04:09:48;0.2;57.7
78467;SHT31;67759;51.972;5.650;2023-03-01T04:12:20;0.2;58.0
78467;SHT31;67759;51.972;5.650;2023-03-01T04:14:50;0.1;57.3
78467;SHT31;67759;51.972;5.650;2023-03-01T04:17:20;0.1;57.1
78467;SHT31;67759;51.972;5.650;2023-03-01T04:19:50;0.1;57.7
78467;SHT31;67759;51.972;5.650;2023-03-01T04:22:19;0.1;57.7
78467;SHT31;67759;51.972;5.650;2023-03-01T04:24:49;0.1;57.2
78467;SHT31;67759;51.972;5.650;2023-03-01T04:27:20;0.1;57.8
78467;SHT31;67759;51.972;5.650;2023-03-01T04:29:49;0.1;57.6
78467;SHT31;67759;51.972;5.650;2023-03-01T04:32:19;0.1;57.6
78467;SHT31;67759;51.972;5.650;2023-03-01T04:34:49;0.1;58.0
78467;SHT31;67759;51.972;5.650;2023-03-01T04:37:18;0.2;57.6
78467;SHT31;67759;51.972;5.650;2023-03-01T04:39:48;0.2;57.3
78467;SHT31;67759;51.972;5.650;2023-03-01T04:42:18;0.3;57.3
78467;SHT31;67759;51.972;5.650;2023-03-01T04:44:48;0.3;57.3
78467;SHT31;67759;51.972;5.650;2023-03-01T04:47:18;0.3;57.2
78467;SHT31;67759;51.972;5.650;2023-03-01T04:49:48;0.3;56.3
78467;SHT31;67759;51.972;5.650;2023-03-01T04:52:19;0.3;56.8
78467;SHT31;67759;51.972;5.650;2023-03-01T04:54:49;0.3;56.7
78467;SHT31;67759;51.972;5.650;2023-03-01T04:57:20;0.3;56.7
78467;SHT31;67759;51.972;5.650;2023-03-01T04:59:51;0.3;56.3
78467;SHT31;67759;51.972;5.650;2023-03-01T05:02:21;0.3;56.8
78467;SHT31;67759;51.972;5.650;2023-03-01T05:04:51;0.3;57.1
78467;SHT31;67759;51.972;5.650;2023-03-01T05:07:26;0.4;57.2
78467;SHT31;67759;51.972;5.650;2023-03-01T05:09:56;0.4;57.0
78467;SHT31;67759;51.972;5.650;2023-03-01T05:12:25;0.4;57.1
78467;SHT31;67759;51.972;5.650;2023-03-01T05:14:55;0.4;56.6
78467;SHT31;67759;51.972;5.650;2023-03-01T05:17:26;0.3;56.5
78467;SHT31;67759;51.972;5.650;2023-03-01T05:19:55;0.3;57.2
78467;SHT31;67759;51.972;5.650;2023-03-01T05:22:27;0.3;57.4
78467;SHT31;67759;51.972;5.650;2023-03-01T05:24:56;0.2;57.3
78467;SHT31;67759;51.972;5.650;2023-03-01T05:27:26;0.2;56.8
78467;SHT31;67759;51.972;5.650;2023-03-01T05:29:56;0.1;56.4
78467;SHT31;67759;51.972;5.650;2023-03-01T05:32:27;0.1;57.1
78467;SHT31;67759;51.972;5.650;2023-03-01T05:34:59;0.0;57.0
78467;SHT31;67759;51.972;5.650;2023-03-01T05:37:29;-0.0;57.3
78467;SHT31;67759;51.972;5.650;2023-03-01T05:39:58;-0.1;57.2
78467;SHT31;67759;51.972;5.650;2023-03-01T05:42:28;-0.1;57.9
78467;SHT31;67759;51.972;5.650;2023-03-01T05:44:58;-0.2;58.3
78467;SHT31;67759;51.972;5.650;2023-03-01T05:47:28;-0.2;58.7
78467;SHT31;67759;51.972;5.650;2023-03-01T05:49:59;-0.3;59.0
78467;SHT31;67759;51.972;5.650;2023-03-01T05:52:29;-0.3;60.1
78467;SHT31;67759;51.972;5.650;2023-03-01T05:54:58;-0.4;59.0
78467;SHT31;67759;51.972;5.650;2023-03-01T05:57:29;-0.4;60.0
78467;SHT31;67759;51.972;5.650;2023-03-01T05:59:59;-0.4;59.7
78467;SHT31;67759;51.972;5.650;2023-03-01T06:02:29;-0.5;59.0
78467;SHT31;67759;51.972;5.650;2023-03-01T06:05:00;-0.5;58.8
78467;SHT31;67759;51.972;5.650;2023-03-01T06:07:31;-0.5;59.3
78467;SHT31;67759;51.972;5.650;2023-03-01T06:10:01;-0.5;59.3
78467;SHT31;67759;51.972;5.650;2023-03-01T06:12:33;-0.6;58.7
78467;SHT31;67759;51.972;5.650;2023-03-01T06:15:04;-0.6;59.4
78467;SHT31;67759;51.972;5.650;2023-03-01T06:17:38;-0.6;59.4
78467;SHT31;67759;51.972;5.650;2023-03-01T06:20:10;-0.6;59.5
78467;SHT31;67759;51.972;5.650;2023-03-01T06:22:41;-0.6;59.0
78467;SHT31;67759;51.972;5.650;2023-03-01T06:25:12;-0.6;59.2
78467;SHT31;67759;51.972;5.650;2023-03-01T06:27:45;-0.6;58.5
78467;SHT31;67759;51.972;5.650;2023-03-01T06:30:18;-0.6;58.9
78467;SHT31;67759;51.972;5.650;2023-03-01T06:32:49;-0.6;58.8
78467;SHT31;67759;51.972;5.650;2023-03-01T06:35:20;-0.6;59.7
78467;SHT31;67759;51.972;5.650;2023-03-01T06:37:50;-0.5;59.3
78467;SHT31;67759;51.972;5.650;2023-03-01T06:40:20;-0.4;60.1
78467;SHT31;67759;51.972;5.650;2023-03-01T06:42:51;-0.3;58.3
78467;SHT31;67759;51.972;5.650;2023-03-01T06:45:21;-0.2;58.6
78467;SHT31;67759;51.972;5.650;2023-03-01T06:47:51;-0.2;57.9
78467;SHT31;67759;51.972;5.650;2023-03-01T06:50:21;-0.2;57.8
78467;SHT31;67759;51.972;5.650;2023-03-01T06:52:55;-0.2;57.2
78467;SHT31;67759;51.972;5.650;2023-03-01T06:55:26;-0.2;57.1
78467;SHT31;67759;51.972;5.650;2023-03-01T06:57:56;-0.2;57.1
78467;SHT31;67759;51.972;5.650;2023-03-01T07:00:27;-0.2;57.0
78467;SHT31;67759;51.972;5.650;2023-03-01T07:02:58;-0.2;56.7
78467;SHT31;67759;51.972;5.650;2023-03-01T07:05:27;-0.2;56.4
78467;SHT31;67759;51.972;5.650;2023-03-01T07:07:57;-0.2;56.9
78467;SHT31;67759;51.972;5.650;2023-03-01T07:10:27;-0.2;57.5
78467;SHT31;67759;51.972;5.650;2023-03-01T07:12:58;-0.2;57.6
78467;SHT31;67759;51.972;5.650;2023-03-01T07:15:30;-0.1;57.2
78467;SHT31;67759;51.972;5.650;2023-03-01T07:18:00;-0.1;57.6
78467;SHT31;67759;51.972;5.650;2023-03-01T07:20:30;-0.1;57.5
78467;SHT31;67759;51.972;5.650;2023-03-01T07:23:00;0.0;57.9
78467;SHT31;67759;51.972;5.650;2023-03-01T07:25:30;0.2;59.6
78467;SHT31;67759;51.972;5.650;2023-03-01T07:28:00;0.5;58.8
78467;SHT31;67759;51.972;5.650;2023-03-01T07:30:29;0.8;58.2
78467;SHT31;67759;51.972;5.650;2023-03-01T07:32:59;1.0;56.8
78467;SHT31;67759;51.972;5.650;2023-03-01T07:35:29;1.1;56.0
78467;SHT31;67759;51.972;5.650;2023-03-01T07:38:01;1.1;56.1
78467;SHT31;67759;51.972;5.650;2023-03-01T07:40:31;1.2;56.2
78467;SHT31;67759;51.972;5.650;2023-03-01T07:43:01;1.2;56.0
78467;SHT31;67759;51.972;5.650;2023-03-01T07:45:33;1.2;57.7
78467;SHT31;67759;51.972;5.650;2023-03-01T07:48:04;1.2;57.2
78467;SHT31;67759;51.972;5.650;2023-03-01T07:50:37;1.2;57.5
78467;SHT31;67759;51.972;5.650;2023-03-01T07:53:07;1.3;58.0
78467;SHT31;67759;51.972;5.650;2023-03-01T07:55:37;1.4;59.0
78467;SHT31;67759;51.972;5.650;2023-03-01T07:58:07;1.5;59.5
78467;SHT31;67759;51.972;5.650;2023-03-01T08:00:36;1.8;58.6
78467;SHT31;67759;51.972;5.650;2023-03-01T08:03:06;2.1;57.5
78467;SHT31;67759;51.972;5.650;2023-03-01T08:05:36;2.3;56.0
78467;SHT31;67759;51.972;5.650;2023-03-01T08:08:08;2.5;56.0
78467;SHT31;67759;51.972;5.650;2023-03-01T08:10:38;2.7;55.5
78467;SHT31;67759;51.972;5.650;2023-03-01T08:13:07;2.8;54.7
78467;SHT31;67759;51.972;5.650;2023-03-01T08:15:38;3.0;54.0
78467;SHT31;67759;51.972;5.650;2023-03-01T08:18:08;3.1;53.2
78467;SHT31;67759;51.972;5.650;2023-03-01T08:20:40;3.2;52.6
78467;SHT31;67759;51.972;5.650;2023-03-01T08:23:10;3.3;52.2
78467;SHT31;67759;51.972;5.650;2023-03-01T08:25:39;3.4;52.3
78467;SHT31;67759;51.972;5.650;2023-03-01T08:28:10;3.5;51.4
78467;SHT31;67759;51.972;5.650;2023-03-01T08:30:41;3.5;51.2
78467;SHT31;67759;51.972;5.650;2023-03-01T08:33:10;3.6;50.5
78467;SHT31;67759;51.972;5.650;2023-03-01T08:35:40;3.7;51.1
78467;SHT31;67759;51.972;5.650;2023-03-01T08:38:09;3.9;50.3
78467;SHT31;67759;51.972;5.650;2023-03-01T08:40:39;4.2;50.1
78467;SHT31;67759;51.972;5.650;2023-03-01T08:43:10;4.4;48.4
78467;SHT31;67759;51.972;5.650;2023-03-01T08:45:40;4.6;47.9
78467;SHT31;67759;51.972;5.650;2023-03-01T08:48:10;4.8;47.5
78467;SHT31;67759;51.972;5.650;2023-03-01T08:50:39;5.0;47.4
78467;SHT31;67759;51.972;5.650;2023-03-01T08:53:09;5.2;46.7
78467;SHT31;67759;51.972;5.650;2023-03-01T08:55:38;5.3;46.0
78467;SHT31;67759;51.972;5.650;2023-03-01T08:58:10;5.4;46.2
78467;SHT31;67759;51.972;5.650;2023-03-01T09:00:40;5.6;46.0
78467;SHT31;67759;51.972;5.650;2023-03-01T09:03:10;5.7;45.7
78467;SHT31;67759;51.972;5.650;2023-03-01T09:05:40;5.8;45.1
78467;SHT31;67759;51.972;5.650;2023-03-01T09:08:09;5.9;45.2
78467;SHT31;67759;51.972;5.650;2023-03-01T09:10:39;6.0;44.6
78467;SHT31;67759;51.972;5.650;2023-03-01T09:13:09;6.1;44.6
78467;SHT31;67759;51.972;5.650;2023-03-01T09:15:39;6.1;44.7
78467;SHT31;67759;51.972;5.650;2023-03-01T09:18:08;6.2;44.7
78467;SHT31;67759;51.972;5.650;2023-03-01T09:20:40;6.3;43.8
78467;SHT31;67759;51.972;5.650;2023-03-01T09:23:10;6.3;43.6
78467;SHT31;67759;51.972;5.650;2023-03-01T09:25:40;6.3;43.3
78467;SHT31;67759;51.972;5.650;2023-03-01T09:28:09;6.3;44.0
78467;SHT31;67759;51.972;5.650;2023-03-01T09:30:40;6.3;44.0
78467;SHT31;67759;51.972;5.650;2023-03-01T09:33:10;6.4;43.4
78467;SHT31;67759;51.972;5.650;2023-03-01T09:35:44;6.4;43.7
78467;SHT31;67759;51.972;5.650;2023-03-01T09:38:15;6.4;44.0
78467;SHT31;67759;51.972;5.650;2023-03-01T09:40:45;6.4;43.5
78467;SHT31;67759;51.972;5.650;2023-03-01T09:43:23;6.4;43.0
78467;SHT31;67759;51.972;5.650;2023-03-01T09:46:01;6.4;43.3
78467;SHT31;67759;51.972;5.650;2023-03-01T09:48:41;6.4;42.8
78467;SHT31;67759;51.972;5.650;2023-03-01T09:51:18;6.5;42.4
78467;SHT31;67759;51.972;5.650;2023-03-01T09:53:49;6.5;42.2
78467;SHT31;67759;51.972;5.650;2023-03-01T09:56:29;6.5;42.8
78467;SHT31;67759;51.972;5.650;2023-03-01T09:59:13;6.6;42.3
78467;SHT31;67759;51.972;5.650;2023-03-01T10:01:52;6.7;42.1
78467;SHT31;67759;51.972;5.650;2023-03-01T10:04:32;6.7;41.6
78467;SHT31;67759;51.972;5.650;2023-03-01T10:07:16;6.8;41.0
78467;SHT31;67759;51.972;5.650;2023-03-01T10:09:47;6.9;40.9
78467;SHT31;67759;51.972;5.650;2023-03-01T10:12:19;6.9;40.8
78467;SHT31;67759;51.972;5.650;2023-03-01T10:15:00;7.0;40.4
78467;SHT31;67759;51.972;5.650;2023-03-01T10:17:37;7.1;39.6
78467;SHT31;67759;51.972;5.650;2023-03-01T10:20:19;7.1;39.0
78467;SHT31;67759;51.972;5.650;2023-03-01T10:22:50;7.2;38.7
78467;SHT31;67759;51.972;5.650;2023-03-01T10:25:40;7.3;39.5
78467;SHT31;67759;51.972;5.650;2023-03-01T10:28:17;7.4;38.7
78467;SHT31;67759;51.972;5.650;2023-03-01T10:30:48;7.4;38.5
78467;SHT31;67759;51.972;5.650;2023-03-01T10:33:23;7.5;39.3
78467;SHT31;67759;51.972;5.650;2023-03-01T10:35:53;7.6;37.4
78467;SHT31;67759;51.972;5.650;2023-03-01T10:38:24;7.8;36.9
78467;SHT31;67759;51.972;5.650;2023-03-01T10:40:59;7.9;37.3
78467;SHT31;67759;51.972;5.650;2023-03-01T10:43:43;8.1;36.7
78467;SHT31;67759;51.972;5.650;2023-03-01T10:46:24;8.2;36.9
78467;SHT31;67759;51.972;5.650;2023-03-01T10:49:14;8.2;36.2
78467;SHT31;67759;51.972;5.650;2023-03-01T10:51:47;8.3;36.0
78467;SHT31;67759;51.972;5.650;2023-03-01T10:54:20;8.3;35.3
78467;SHT31;67759;51.972;5.650;2023-03-01T10:56:53;8.3;36.0
78467;SHT31;67759;51.972;5.650;2023-03-01T10:59:31;8.3;35.6
78467;SHT31;67759;51.972;5.650;2023-03-01T11:02:21;8.3;36.3
78467;SHT31;67759;51.972;5.650;2023-03-01T11:04:59;8.4;35.9
78467;SHT31;67759;51.972;5.650;2023-03-01T11:07:29;8.4;35.7
78467;SHT31;67759;51.972;5.650;2023-03-01T11:09:59;8.5;35.0
78467;SHT31;67759;51.972;5.650;2023-03-01T11:12:28;8.5;35.3
78467;SHT31;67759;51.972;5.650;2023-03-01T11:15:00;8.5;36.7
78467;SHT31;67759;51.972;5.650;2023-03-01T11:17:31;8.6;35.7
78467;SHT31;67759;51.972;5.650;2023-03-01T11:20:15;8.7;35.3
78467;SHT31;67759;51.972;5.650;2023-03-01T11:22:52;8.8;35.1
78467;SHT31;67759;51.972;5.650;2023-03-01T11:25:25;8.9;37.0
78467;SHT31;67759;51.972;5.650;2023-03-01T11:27:57;9.0;36.4
78467;SHT31;67759;51.972;5.650;2023-03-01T11:30:32;9.0;34.8
78467;SHT31;67759;51.972;5.650;2023-03-01T11:33:15;9.1;35.4
78467;SHT31;67759;51.972;5.650;2023-03-01T11:35:54;9.2;34.1
78467;SHT31;67759;51.972;5.650;2023-03-01T11:38:28;9.3;33.6
78467;SHT31;67759;51.972;5.650;2023-03-01T11:41:04;9.4;34.7
78467;SHT31;67759;51.972;5.650;2023-03-01T11:43:45;9.4;34.3
78467;SHT31;67759;51.972;5.650;2023-03-01T11:46:50;9.5;33.7
78467;SHT31;67759;51.972;5.650;2023-03-01T11:49:39;9.6;33.5
78467;SHT31;67759;51.972;5.650;2023-03-01T11:52:24;9.6;34.5
78467;SHT31;67759;51.972;5.650;2023-03-01T11:55:12;9.7;33.2
78467;SHT31;67759;51.972;5.650;2023-03-01T11:57:59;9.9;34.7
78467;SHT31;67759;51.972;5.650;2023-03-01T12:00:47;9.9;34.5
78467;SHT31;67759;51.972;5.650;2023-03-01T12:03:34;10.0;35.3
78467;SHT31;67759;51.972;5.650;2023-03-01T12:06:52;10.1;33.7
78467;SHT31;67759;51.972;5.650;2023-03-01T12:10:01;10.2;33.9
78467;SHT31;67759;51.972;5.650;2023-03-01T12:12:48;10.3;33.7
78467;SHT31;67759;51.972;5.650;2023-03-01T12:16:33;10.4;37.2
78467;SHT31;67759;51.972;5.650;2023-03-01T12:19:23;10.5;34.9
78467;SHT31;67759;51.972;5.650;2023-03-01T12:22:18;10.6;33.2
78467;SHT31;67759;51.972;5.650;2023-03-01T12:25:17;10.6;34.8
78467;SHT31;67759;51.972;5.650;2023-03-01T12:28:27;10.6;34.1
78467;SHT31;67759;51.972;5.650;2023-03-01T12:32:13;10.7;32.7
78467;SHT31;67759;51.972;5.650;2023-03-01T12:35:09;10.9;34.0
78467;SHT31;67759;51.972;5.650;2023-03-01T12:37:54;11.1;31.9
78467;SHT31;67759;51.972;5.650;2023-03-01T12:40:42;11.2;32.5
78467;SHT31;67759;51.972;5.650;2023-03-01T12:43:24;11.4;33.4
78467;SHT31;67759;51.972;5.650;2023-03-01T12:46:09;11.6;31.6
78467;SHT31;67759;51.972;5.650;2023-03-01T12:48:47;11.7;34.2
78467;SHT31;67759;51.972;5.650;2023-03-01T12:51:24;11.7;32.7
78467;SHT31;67759;51.972;5.650;2023-03-01T12:53:58;11.7;34.9
78467;SHT31;67759;51.972;5.650;2023-03-01T12:56:32;11.7;31.5
78467;SHT31;67759;51.972;5.650;2023-03-01T12:59:15;11.8;31.5
78467;SHT31;67759;51.972;5.650;2023-03-01T13:01:51;11.8;32.7
78467;SHT31;67759;51.972;5.650;2023-03-01T13:04:31;11.9;33.0
78467;SHT31;67759;51.972;5.650;2023-03-01T13:07:15;11.9;32.7
78467;SHT31;67759;51.972;5.650;2023-03-01T13:09:54;12.0;30.6
78467;SHT31;67759;51.972;5.650;2023-03-01T13:12:45;12.1;30.5
78467;SHT31;67759;51.972;5.650;2023-03-01T13:15:37;12.2;32.3
78467;SHT31;67759;51.972;5.650;2023-03-01T13:18:29;12.2;32.0
78467;SHT31;67759;51.972;5.650;2023-03-01T13:21:01;12.2;31.1
78467;SHT31;67759;51.972;5.650;2023-03-01T13:23:38;12.2;32.5
78467;SHT31;67759;51.972;5.650;2023-03-01T13:26:12;12.2;31.0
78467;SHT31;67759;51.972;5.650;2023-03-01T13:29:25;12.2;31.5
78467;SHT31;67759;51.972;5.650;2023-03-01T13:31:58;12.2;31.1
78467;SHT31;67759;51.972;5.650;2023-03-01T13:34:51;12.2;32.9
78467;SHT31;67759;51.972;5.650;2023-03-01T13:37:27;12.3;33.2
78467;SHT31;67759;51.972;5.650;2023-03-01T13:39:59;12.3;34.3
78467;SHT31;67759;51.972;5.650;2023-03-01T13:42:40;12.3;34.0
78467;SHT31;67759;51.972;5.650;2023-03-01T13:45:23;12.3;33.0
78467;SHT31;67759;51.972;5.650;2023-03-01T13:48:00;12.4;35.1
78467;SHT31;67759;51.972;5.650;2023-03-01T13:50:36;12.4;34.4
78467;SHT31;67759;51.972;5.650;2023-03-01T13:53:17;12.5;33.1
78467;SHT31;67759;51.972;5.650;2023-03-01T13:55:49;12.7;33.8
78467;SHT31;67759;51.972;5.650;2023-03-01T13:58:24;12.7;32.4
78467;SHT31;67759;51.972;5.650;2023-03-01T14:00:59;12.7;33.2
78467;SHT31;67759;51.972;5.650;2023-03-01T14:03:31;12.7;34.6
78467;SHT31;67759;51.972;5.650;2023-03-01T14:06:11;12.8;32.2
78467;SHT31;67759;51.972;5.650;2023-03-01T14:08:44;12.9;32.0
78467;SHT31;67759;51.972;5.650;2023-03-01T14:11:43;13.0;30.5
78467;SHT31;67759;51.972;5.650;2023-03-01T14:14:36;12.9;29.9
78467;SHT31;67759;51.972;5.650;2023-03-01T14:17:20;12.8;32.4
78467;SHT31;67759;51.972;5.650;2023-03-01T14:19:59;12.8;34.8
78467;SHT31;67759;51.972;5.650;2023-03-01T14:22:34;13.0;30.0
78467;SHT31;67759;51.972;5.650;2023-03-01T14:25:06;13.1;32.6
78467;SHT31;67759;51.972;5.650;2023-03-01T14:27:40;13.1;31.3
78467;SHT31;67759;51.972;5.650;2023-03-01T14:30:16;13.1;32.7
78467;SHT31;67759;51.972;5.650;2023-03-01T14:32:55;13.0;28.9
78467;SHT31;67759;51.972;5.650;2023-03-01T14:35:27;13.0;32.6
78467;SHT31;67759;51.972;5.650;2023-03-01T14:37:58;12.9;31.3
78467;SHT31;67759;51.972;5.650;2023-03-01T14:40:30;12.9;32.0
78467;SHT31;67759;51.972;5.650;2023-03-01T14:43:10;12.7;30.0
78467;SHT31;67759;51.972;5.650;2023-03-01T14:45:37;12.7;32.7
78467;SHT31;67759;51.972;5.650;2023-03-01T14:48:07;12.7;29.7
78467;SHT31;67759;51.972;5.650;2023-03-01T14:50:42;12.8;31.4
78467;SHT31;67759;51.972;5.650;2023-03-01T14:53:17;12.9;29.6
78467;SHT31;67759;51.972;5.650;2023-03-01T14:55:52;12.9;32.9
78467;SHT31;67759;51.972;5.650;2023-03-01T14:58:24;13.0;32.4
78467;SHT31;67759;51.972;5.650;2023-03-01T15:00:57;13.0;34.4
78467;SHT31;67759;51.972;5.650;2023-03-01T15:03:32;12.9;35.2
78467;SHT31;67759;51.972;5.650;2023-03-01T15:06:06;12.9;29.7
78467;SHT31;67759;51.972;5.650;2023-03-01T15:08:37;12.8;32.7
78467;SHT31;67759;51.972;5.650;2023-03-01T15:11:21;12.8;33.3
78467;SHT31;67759;51.972;5.650;2023-03-01T15:13:53;12.8;31.9
78467;SHT31;67759;51.972;5.650;2023-03-01T15:16:25;12.7;32.8
78467;SHT31;67759;51.972;5.650;2023-03-01T15:18:57;12.6;30.5
78467;SHT31;67759;51.972;5.650;2023-03-01T15:21:31;12.5;29.2
78467;SHT31;67759;51.972;5.650;2023-03-01T15:24:06;12.4;31.2
78467;SHT31;67759;51.972;5.650;2023-03-01T15:26:45;12.4;35.1
78467;SHT31;67759;51.972;5.650;2023-03-01T15:29:24;12.3;31.8
78467;SHT31;67759;51.972;5.650;2023-03-01T15:31:59;12.3;31.6
78467;SHT31;67759;51.972;5.650;2023-03-01T15:34:32;12.2;31.6
78467;SHT31;67759;51.972;5.650;2023-03-01T15:37:06;12.1;33.5
78467;SHT31;67759;51.972;5.650;2023-03-01T15:39:42;12.0;34.5
78467;SHT31;67759;51.972;5.650;2023-03-01T15:42:37;11.9;34.2
78467;SHT31;67759;51.972;5.650;2023-03-01T15:45:20;11.8;34.5
78467;SHT31;67759;51.972;5.650;2023-03-01T15:47:50;11.8;33.7
78467;SHT31;67759;51.972;5.650;2023-03-01T15:50:25;11.9;32.9
78467;SHT31;67759;51.972;5.650;2023-03-01T15:52:58;11.9;34.4
78467;SHT31;67759;51.972;5.650;2023-03-01T15:55:30;11.9;32.3
78467;SHT31;67759;51.972;5.650;2023-03-01T15:58:04;11.8;32.6
78467;SHT31;67759;51.972;5.650;2023-03-01T16:00:34;11.8;30.7
78467;SHT31;67759;51.972;5.650;2023-03-01T16:03:05;11.7;30.5
78467;SHT31;67759;51.972;5.650;2023-03-01T16:05:36;11.7;29.8
78467;SHT31;67759;51.972;5.650;2023-03-01T16:08:06;11.7;30.0
78467;SHT31;67759;51.972;5.650;2023-03-01T16:10:36;11.8;34.1
78467;SHT31;67759;51.972;5.650;2023-03-01T16:13:09;11.8;30.5
78467;SHT31;67759;51.972;5.650;2023-03-01T16:15:42;11.8;31.5
78467;SHT31;67759;51.972;5.650;2023-03-01T16:18:12;11.8;31.0
78467;SHT31;67759;51.972;5.650;2023-03-01T16:20:42;11.8;30.6
78467;SHT31;67759;51.972;5.650;2023-03-01T16:23:12;11.7;30.5
78467;SHT31;67759;51.972;5.650;2023-03-01T16:25:44;11.6;30.6
78467;SHT31;67759;51.972;5.650;2023-03-01T16:28:15;11.4;29.1
78467;SHT31;67759;51.972;5.650;2023-03-01T16:30:47;11.2;29.8
78467;SHT31;67759;51.972;5.650;2023-03-01T16:33:18;11.0;32.1
78467;SHT31;67759;51.972;5.650;2023-03-01T16:35:47;10.9;31.7
78467;SHT31;67759;51.972;5.650;2023-03-01T16:38:17;10.7;30.4
78467;SHT31;67759;51.972;5.650;2023-03-01T16:40:50;10.5;31.7
78467;SHT31;67759;51.972;5.650;2023-03-01T16:43:20;10.4;32.4
78467;SHT31;67759;51.972;5.650;2023-03-01T16:45:52;10.4;32.0
78467;SHT31;67759;51.972;5.650;2023-03-01T16:48:22;10.3;32.3
78467;SHT31;67759;51.972;5.650;2023-03-01T16:50:57;10.2;31.9
78467;SHT31;67759;51.972;5.650;2023-03-01T16:53:28;10.1;33.9
78467;SHT31;67759;51.972;5.650;2023-03-01T16:55:58;10.1;31.1
78467;SHT31;67759;51.972;5.650;2023-03-01T16:58:29;10.1;32.4